Time;durP1;ratioP1;P1;durP2;ratioP2;P2;SDS_P1;SDS_P2;PMS_P1;PMS_P2;Temp;Humidity;BMP_temperature;BMP_pressure;BME280_temperature;BME280_humidity;BME280_pressure;Samples;Min_cycle;Max_cycle;Signal;HPM_P1;HPM_P2
2022/06/04 00:00:49;;;;;;;0.95;0.52;;;14.20;99.90;;;;;;5097736;28;20215;-85
2022/06/04 00:03:21;;;;;;;1.70;0.77;;;14.30;99.90;;;;;;5094846;28;20218;-87
2022/06/04 00:05:55;;;;;;;2.10;0.70;;;14.30;99.90;;;;;;5093716;28;20195;-86
2022/06/04 00:08:25;;;;;;;2.13;0.88;;;14.40;99.90;;;;;;5093447;28;20230;-87
2022/06/04 00:16:33;;;;;;;1.80;0.70;;;14.60;99.90;;;;;;5096413;28;20202;-87
2022/06/04 00:19:06;;;;;;;1.02;0.45;;;14.70;99.90;;;;;;5096031;28;20248;-86
2022/06/04 00:21:39;;;;;;;1.02;0.43;;;14.60;99.90;;;;;;5097674;28;20252;-87
2022/06/04 00:24:11;;;;;;;1.80;0.70;;;14.70;99.90;;;;;;5095636;28;20300;-86
2022/06/04 00:26:41;;;;;;;2.60;0.70;;;14.70;99.90;;;;;;5098290;28;20236;-87
2022/06/04 00:29:12;;;;;;;4.65;1.00;;;14.80;99.90;;;;;;5096269;28;20214;-86
2022/06/04 00:31:44;;;;;;;1.20;0.55;;;14.90;99.90;;;;;;5096060;28;20186;-87
2022/06/04 00:34:16;;;;;;;2.10;0.73;;;15.00;99.90;;;;;;5094547;28;20191;-86
2022/06/04 00:36:50;;;;;;;1.58;0.60;;;15.00;99.90;;;;;;5094995;28;20669;-86
2022/06/04 00:39:21;;;;;;;1.42;0.65;;;15.00;99.90;;;;;;5097132;28;20191;-86
2022/06/04 00:41:58;;;;;;;0.77;0.65;;;15.00;99.90;;;;;;5094937;28;20198;-86
2022/06/04 00:45:15;;;;;;;2.47;0.80;;;15.20;99.90;;;;;;5096347;28;20273;-86
2022/06/04 00:47:46;;;;;;;0.60;0.60;;;15.20;99.90;;;;;;5095415;28;20276;-85
2022/06/04 00:50:18;;;;;;;2.72;0.70;;;15.30;99.90;;;;;;5096332;28;20187;-86
2022/06/04 00:52:52;;;;;;;1.55;0.80;;;15.30;99.90;;;;;;5098343;28;20191;-86
2022/06/04 00:55:23;;;;;;;1.13;0.70;;;15.30;99.90;;;;;;5097043;28;20195;-86
2022/06/04 00:58:15;;;;;;;0.65;0.43;;;15.30;99.90;;;;;;5097960;28;20196;-84
2022/06/04 01:00:52;;;;;;;2.20;0.60;;;15.40;99.90;;;;;;5095889;28;20187;-87
2022/06/04 01:03:51;;;;;;;1.48;0.50;;;15.40;99.90;;;;;;5094100;28;20657;-85
2022/06/04 01:06:36;;;;;;;1.70;0.57;;;15.30;99.90;;;;;;5096290;28;20281;-86
2022/06/04 01:09:31;;;;;;;0.80;0.52;;;15.40;99.90;;;;;;5096169;28;20191;-86
2022/06/04 01:12:13;;;;;;;1.70;0.80;;;15.50;99.90;;;;;;5099617;28;20591;-85
2022/06/04 01:14:55;;;;;;;1.33;0.80;;;15.60;99.90;;;;;;5096846;28;20227;-86
2022/06/04 01:17:36;;;;;;;3.65;1.13;;;15.60;99.90;;;;;;5096934;28;20191;-85
2022/06/04 01:20:21;;;;;;;1.85;0.65;;;15.50;99.90;;;;;;5095039;28;20289;-85
2022/06/04 01:23:19;;;;;;;1.35;0.77;;;15.60;99.90;;;;;;5106413;28;20308;-84
2022/06/04 01:26:08;;;;;;;1.40;0.50;;;15.80;99.90;;;;;;5117398;28;20199;-84
2022/06/04 01:28:53;;;;;;;2.60;0.77;;;15.90;99.90;;;;;;5109153;28;20195;-85
2022/06/04 01:31:26;;;;;;;1.10;0.68;;;16.00;99.90;;;;;;5095771;28;20194;-85
2022/06/04 01:34:03;;;;;;;2.65;1.00;;;16.10;99.90;;;;;;5096340;28;20206;-85
2022/06/04 01:36:40;;;;;;;1.85;1.00;;;16.30;99.90;;;;;;5093552;28;20190;-85
2022/06/04 01:39:15;;;;;;;4.53;0.80;;;16.30;99.90;;;;;;5095652;28;20213;-86
2022/06/04 01:41:48;;;;;;;1.20;0.43;;;16.40;99.90;;;;;;5096191;28;20205;-86
2022/06/04 01:44:24;;;;;;;1.05;0.55;;;16.30;99.90;;;;;;5094331;28;20218;-85
2022/06/04 01:46:58;;;;;;;1.40;0.70;;;16.30;99.90;;;;;;5100346;28;20267;-84
2022/06/04 01:49:32;;;;;;;0.98;0.57;;;16.30;99.90;;;;;;5094040;28;20680;-85
2022/06/04 01:52:08;;;;;;;1.08;0.70;;;16.50;99.90;;;;;;5092637;28;20192;-83
2022/06/04 01:54:42;;;;;;;1.58;0.70;;;16.50;99.90;;;;;;5093109;28;20194;-84
2022/06/04 01:57:19;;;;;;;1.55;0.50;;;16.70;99.90;;;;;;5092529;28;20194;-84
2022/06/04 01:59:55;;;;;;;1.25;0.52;;;16.80;99.90;;;;;;5090398;28;20848;-84
2022/06/04 02:02:32;;;;;;;1.90;0.70;;;16.60;99.90;;;;;;5094255;28;20223;-85
2022/06/04 02:05:07;;;;;;;0.90;0.70;;;16.60;99.90;;;;;;5091262;28;20218;-85
2022/06/04 02:07:40;;;;;;;0.82;0.43;;;16.70;99.90;;;;;;5095501;28;20221;-84
2022/06/04 02:10:16;;;;;;;3.08;0.77;;;16.80;99.90;;;;;;5091921;28;21975;-84
2022/06/04 02:12:51;;;;;;;1.33;0.70;;;16.80;99.90;;;;;;5092212;28;20252;-84
2022/06/04 02:15:30;;;;;;;1.42;0.52;;;16.80;99.90;;;;;;5087897;28;20687;-84
2022/06/04 02:18:02;;;;;;;1.25;0.68;;;16.80;99.90;;;;;;5091978;28;20748;-84
2022/06/04 02:20:33;;;;;;;1.65;1.10;;;16.90;99.90;;;;;;5085779;28;20712;-85
2022/06/04 02:23:04;;;;;;;1.88;0.63;;;16.90;99.90;;;;;;5086897;28;20219;-84
2022/06/04 02:25:38;;;;;;;1.30;0.60;;;17.00;99.90;;;;;;5088918;28;20214;-84
2022/06/04 02:28:10;;;;;;;1.20;0.60;;;17.00;99.90;;;;;;5088117;28;20222;-85
2022/06/04 02:30:54;;;;;;;2.08;0.52;;;17.00;99.90;;;;;;5086114;28;20225;-84
2022/06/04 02:33:39;;;;;;;1.90;0.80;;;16.80;99.90;;;;;;5086365;28;20214;-85
2022/06/04 02:36:13;;;;;;;1.63;0.60;;;16.90;99.90;;;;;;5084043;28;20286;-85
2022/06/04 02:38:51;;;;;;;1.35;0.70;;;17.10;99.90;;;;;;5083304;28;20302;-85
2022/06/04 02:41:24;;;;;;;1.42;0.50;;;17.10;99.90;;;;;;5086874;28;20296;-85
2022/06/04 02:44:00;;;;;;;10.93;0.93;;;17.10;99.90;;;;;;5086397;28;20901;-85
2022/06/04 02:46:37;;;;;;;2.25;0.50;;;17.20;99.90;;;;;;5084600;28;20302;-85
2022/06/04 02:49:12;;;;;;;1.92;0.80;;;17.20;99.90;;;;;;5085966;28;20215;-85
2022/06/04 02:51:46;;;;;;;1.15;0.60;;;17.20;99.90;;;;;;5094263;28;20221;-84
2022/06/04 02:54:18;;;;;;;1.95;0.52;;;17.30;99.90;;;;;;5082842;28;20218;-84
2022/06/04 02:56:51;;;;;;;1.05;0.40;;;17.50;99.90;;;;;;5085034;28;20260;-85
2022/06/04 02:59:25;;;;;;;0.65;0.38;;;17.50;99.90;;;;;;5092376;28;20223;-84
2022/06/04 03:02:01;;;;;;;1.30;0.60;;;17.60;99.90;;;;;;5091550;28;20217;-84
2022/06/04 03:04:41;;;;;;;1.40;0.50;;;17.70;99.90;;;;;;5088673;28;20238;-84
2022/06/04 03:07:13;;;;;;;2.25;0.40;;;17.70;99.90;;;;;;5088934;28;21019;-84
2022/06/04 03:09:44;;;;;;;0.95;0.40;;;17.70;99.90;;;;;;5089802;28;20222;-84
2022/06/04 03:12:15;;;;;;;0.90;0.40;;;17.60;99.90;;;;;;5092422;28;20195;-84
2022/06/04 03:14:46;;;;;;;0.40;0.40;;;17.60;99.90;;;;;;5089918;27;20202;-82
2022/06/04 03:17:19;;;;;;;1.02;0.40;;;17.60;99.90;;;;;;5091226;28;20539;-82
2022/06/04 03:19:50;;;;;;;2.05;0.50;;;17.50;99.90;;;;;;5091121;28;20198;-82
2022/06/04 03:22:21;;;;;;;1.25;0.50;;;17.50;99.90;;;;;;5090696;28;20219;-83
2022/06/04 03:24:52;;;;;;;2.55;0.80;;;17.50;99.90;;;;;;5090563;28;20223;-82
2022/06/04 03:27:22;;;;;;;1.67;0.60;;;17.60;99.90;;;;;;5091791;28;20217;-84
2022/06/04 03:29:53;;;;;;;1.02;0.40;;;17.60;99.90;;;;;;5095871;28;20194;-84
2022/06/04 03:32:26;;;;;;;0.60;0.40;;;17.60;99.90;;;;;;5090901;28;20219;-84
2022/06/04 03:34:57;;;;;;;1.50;0.50;;;17.60;99.90;;;;;;5092440;28;20218;-84
2022/06/04 03:37:29;;;;;;;1.20;0.45;;;17.50;99.90;;;;;;5092162;28;20199;-84
2022/06/04 03:39:59;;;;;;;2.40;0.77;;;17.50;99.90;;;;;;5093807;28;20199;-83
2022/06/04 03:42:30;;;;;;;1.00;0.50;;;17.50;99.90;;;;;;5092094;28;20226;-83
2022/06/04 03:45:01;;;;;;;0.52;0.30;;;17.40;99.90;;;;;;5087420;27;20233;-82
2022/06/04 03:47:36;;;;;;;1.20;0.35;;;17.50;99.90;;;;;;5091919;28;20709;-82
2022/06/04 03:50:08;;;;;;;0.30;0.30;;;17.50;99.90;;;;;;5087014;28;20525;-84
2022/06/04 03:52:39;;;;;;;1.25;0.30;;;17.40;99.90;;;;;;5088654;28;20219;-86
2022/06/04 03:55:14;;;;;;;1.35;0.60;;;17.50;99.90;;;;;;5091614;28;20218;-86
2022/06/04 03:57:48;;;;;;;0.88;0.40;;;17.60;99.90;;;;;;5092259;28;20213;-84
2022/06/04 04:00:26;;;;;;;1.23;0.80;;;17.60;99.90;;;;;;5093968;28;20198;-88
2022/06/04 04:03:01;;;;;;;1.00;0.60;;;17.60;99.90;;;;;;5095466;28;20654;-87
2022/06/04 04:05:33;;;;;;;0.90;0.47;;;17.60;99.90;;;;;;5095685;28;20233;-87
2022/06/04 04:08:07;;;;;;;1.40;0.45;;;17.60;99.90;;;;;;5094310;28;20475;-88
2022/06/04 04:10:40;;;;;;;2.67;0.57;;;17.60;99.90;;;;;;5094594;28;20275;-87
2022/06/04 04:13:11;;;;;;;1.77;0.43;;;17.60;99.90;;;;;;5093924;28;20211;-89
2022/06/04 04:15:42;;;;;;;0.68;0.40;;;17.60;99.90;;;;;;5096713;27;20192;-92
2022/06/04 04:18:17;;;;;;;3.13;0.73;;;17.70;99.90;;;;;;5099309;28;20196;-90
2022/06/04 04:20:49;;;;;;;2.80;0.90;;;17.80;99.90;;;;;;5089136;28;20215;-85
2022/06/04 04:23:19;;;;;;;1.38;0.68;;;17.90;99.90;;;;;;5089470;28;20203;-80
2022/06/04 04:25:50;;;;;;;0.35;0.30;;;17.80;99.90;;;;;;5086966;28;20713;-83
2022/06/04 04:28:21;;;;;;;0.85;0.40;;;17.80;99.90;;;;;;5092118;28;21409;-85
2022/06/04 04:30:52;;;;;;;1.85;0.75;;;17.90;99.90;;;;;;5091983;28;20194;-84
2022/06/04 04:33:25;;;;;;;1.95;0.80;;;17.90;99.90;;;;;;5092619;28;20199;-85
2022/06/04 04:35:57;;;;;;;2.45;0.70;;;17.80;99.90;;;;;;5092203;28;20869;-85
2022/06/04 04:38:28;;;;;;;1.05;0.50;;;17.90;99.90;;;;;;5092579;28;20206;-85
2022/06/04 04:40:59;;;;;;;1.67;0.70;;;17.90;99.90;;;;;;5095612;28;20246;-84
2022/06/04 04:43:30;;;;;;;1.33;0.70;;;17.90;99.90;;;;;;5095114;28;20275;-84
2022/06/04 04:46:08;;;;;;;1.13;0.60;;;17.90;99.90;;;;;;5090787;28;20237;-84
2022/06/04 04:48:40;;;;;;;1.60;0.73;;;17.90;99.90;;;;;;5097663;28;20195;-82
2022/06/04 04:51:15;;;;;;;1.05;0.50;;;17.90;99.90;;;;;;5090124;28;20199;-82
2022/06/04 04:53:47;;;;;;;1.95;0.60;;;17.80;99.90;;;;;;5092522;28;20260;-84
2022/06/04 04:56:19;;;;;;;1.13;0.50;;;17.80;99.90;;;;;;5093606;28;20207;-82
2022/06/04 04:58:50;;;;;;;1.25;0.50;;;17.80;99.90;;;;;;5096290;28;20191;-83
2022/06/04 05:01:22;;;;;;;1.17;0.50;;;17.80;99.90;;;;;;5097234;28;20195;-86
2022/06/04 05:03:55;;;;;;;0.90;0.32;;;17.80;99.90;;;;;;5111216;28;20186;-85
2022/06/04 05:06:26;;;;;;;2.15;0.90;;;17.80;99.90;;;;;;5109388;28;20191;-83
2022/06/04 05:08:56;;;;;;;1.75;0.50;;;17.80;99.90;;;;;;5054915;28;20197;-82
2022/06/04 05:11:29;;;;;;;4.70;0.68;;;17.80;99.90;;;;;;5051350;28;20647;-83
2022/06/04 05:14:01;;;;;;;0.98;0.60;;;17.80;99.90;;;;;;5050865;28;20749;-83
2022/06/04 05:16:36;;;;;;;0.65;0.50;;;17.80;99.90;;;;;;5052671;28;20282;-83
2022/06/04 05:19:09;;;;;;;1.38;0.50;;;17.80;99.90;;;;;;5050083;28;20195;-82
2022/06/04 05:21:43;;;;;;;1.48;0.47;;;17.90;99.90;;;;;;5049867;28;20218;-82
2022/06/04 05:24:19;;;;;;;0.68;0.50;;;17.90;99.90;;;;;;5048319;28;20203;-82
2022/06/04 05:26:50;;;;;;;0.68;0.50;;;17.80;99.90;;;;;;5049358;28;20639;-82
2022/06/04 05:29:21;;;;;;;2.45;0.60;;;17.80;99.90;;;;;;5051861;28;20569;-83
2022/06/04 05:31:52;;;;;;;0.88;0.43;;;17.80;99.90;;;;;;5048877;28;20200;-82
2022/06/04 05:34:25;;;;;;;0.85;0.40;;;17.70;99.90;;;;;;5049597;28;20224;-81
2022/06/04 05:36:56;;;;;;;1.00;0.70;;;17.60;99.90;;;;;;5049121;28;20300;-82
2022/06/04 05:39:27;;;;;;;1.08;0.50;;;17.60;99.90;;;;;;5048977;28;20216;-82
2022/06/04 05:41:58;;;;;;;0.60;0.40;;;17.60;99.90;;;;;;5048178;28;20933;-82
2022/06/04 05:44:29;;;;;;;2.20;0.40;;;17.60;99.90;;;;;;5049729;28;20201;-82
2022/06/04 05:47:04;;;;;;;0.35;0.30;;;17.50;99.90;;;;;;5059452;28;20195;-81
2022/06/04 05:49:37;;;;;;;0.50;0.40;;;17.50;99.90;;;;;;5055978;28;20250;-82
2022/06/04 05:52:11;;;;;;;1.58;0.50;;;17.50;99.90;;;;;;5053599;28;20207;-83
2022/06/04 05:54:42;;;;;;;1.70;0.70;;;17.50;99.90;;;;;;5049995;28;20204;-84
2022/06/04 05:57:12;;;;;;;1.08;0.50;;;17.50;99.90;;;;;;5054938;28;20204;-85
2022/06/04 05:59:43;;;;;;;0.93;0.40;;;17.60;99.90;;;;;;5055582;28;20227;-86
2022/06/04 06:02:14;;;;;;;0.73;0.40;;;17.60;99.90;;;;;;5051664;28;20204;-85
2022/06/04 06:04:48;;;;;;;1.77;0.75;;;17.60;99.90;;;;;;5048817;28;20216;-86
2022/06/04 06:07:19;;;;;;;1.20;0.47;;;17.50;99.90;;;;;;5067155;28;20248;-86
2022/06/04 06:09:50;;;;;;;1.38;0.75;;;17.50;99.90;;;;;;5089877;28;20724;-86
2022/06/04 06:12:20;;;;;;;1.73;0.70;;;17.50;99.90;;;;;;5092854;28;20199;-85
2022/06/04 06:14:51;;;;;;;1.65;0.70;;;17.50;99.90;;;;;;5093906;28;20198;-85
2022/06/04 06:17:21;;;;;;;1.50;0.75;;;17.40;99.90;;;;;;5097758;28;20600;-85
2022/06/04 06:19:54;;;;;;;1.42;0.40;;;17.40;99.90;;;;;;5093771;28;20226;-85
2022/06/04 06:22:25;;;;;;;0.50;0.40;;;17.40;99.90;;;;;;5092893;28;20201;-87
2022/06/04 06:24:58;;;;;;;1.17;0.50;;;17.30;99.90;;;;;;5094365;28;20630;-87
2022/06/04 06:27:29;;;;;;;0.90;0.40;;;17.30;99.90;;;;;;5093128;28;20218;-84
2022/06/04 06:30:00;;;;;;;0.70;0.60;;;17.30;99.90;;;;;;5090006;28;20881;-85
2022/06/04 06:32:30;;;;;;;2.33;0.45;;;17.20;99.90;;;;;;5093554;28;20642;-83
2022/06/04 06:35:03;;;;;;;1.42;0.50;;;17.30;99.90;;;;;;5089503;28;20194;-84
2022/06/04 06:37:34;;;;;;;0.60;0.40;;;17.20;99.90;;;;;;5088767;28;20255;-84
2022/06/04 06:40:06;;;;;;;4.95;0.45;;;17.10;99.90;;;;;;5089567;28;20795;-84
2022/06/04 06:42:37;;;;;;;0.65;0.47;;;17.00;99.90;;;;;;5090128;28;20199;-84
2022/06/04 06:45:08;;;;;;;2.60;0.40;;;16.90;99.90;;;;;;5090049;28;20678;-84
2022/06/04 06:47:40;;;;;;;1.50;0.50;;;16.80;99.90;;;;;;5095644;28;20195;-85
2022/06/04 06:50:15;;;;;;;1.60;0.57;;;16.80;99.90;;;;;;5094606;28;20205;-84
2022/06/04 06:52:45;;;;;;;0.40;0.30;;;16.70;99.90;;;;;;5092395;28;20226;-84
2022/06/04 06:55:16;;;;;;;2.05;0.50;;;16.70;99.90;;;;;;5094764;28;20207;-85
2022/06/04 06:57:46;;;;;;;0.70;0.60;;;16.60;99.90;;;;;;5094210;28;20215;-85
2022/06/04 07:00:18;;;;;;;1.58;0.55;;;16.50;99.90;;;;;;5093340;28;20198;-86
2022/06/04 07:02:48;;;;;;;1.33;0.75;;;16.50;99.90;;;;;;5095201;28;20187;-83
2022/06/04 07:05:21;;;;;;;1.65;0.77;;;16.40;99.90;;;;;;5092091;28;20301;-84
2022/06/04 07:07:52;;;;;;;0.65;0.47;;;16.40;99.90;;;;;;5091189;28;20650;-84
2022/06/04 07:10:23;;;;;;;1.10;0.50;;;16.30;99.90;;;;;;5091075;28;20196;-84
2022/06/04 07:12:54;;;;;;;0.98;0.60;;;16.20;99.90;;;;;;5093412;28;20201;-84
2022/06/04 07:15:25;;;;;;;1.40;0.73;;;16.20;99.90;;;;;;5092603;28;20248;-84
2022/06/04 07:17:56;;;;;;;1.63;0.70;;;16.20;99.90;;;;;;5091449;28;20202;-83
2022/06/04 07:20:28;;;;;;;1.45;0.60;;;16.10;99.90;;;;;;5091162;28;20723;-83
2022/06/04 07:22:59;;;;;;;1.25;0.70;;;16.10;99.90;;;;;;5088407;28;20223;-82
2022/06/04 07:25:30;;;;;;;1.02;0.60;;;16.00;99.90;;;;;;5089203;28;20254;-83
2022/06/04 07:28:01;;;;;;;0.65;0.65;;;16.00;99.90;;;;;;5093021;28;20223;-82
2022/06/04 07:30:31;;;;;;;0.95;0.80;;;15.90;99.90;;;;;;5094840;28;20210;-86
2022/06/04 07:33:02;;;;;;;1.77;0.77;;;15.90;99.90;;;;;;5092223;28;20199;-83
2022/06/04 07:35:35;;;;;;;1.10;0.90;;;15.90;99.90;;;;;;5090043;28;20203;-82
2022/06/04 07:38:05;;;;;;;1.23;0.80;;;15.80;99.90;;;;;;5092255;28;20688;-84
2022/06/04 07:40:40;;;;;;;2.15;1.60;;;15.70;99.90;;;;;;5093148;28;20211;-83
2022/06/04 07:43:11;;;;;;;1.17;0.90;;;15.70;99.90;;;;;;5092277;28;20205;-82
2022/06/04 07:45:42;;;;;;;2.83;1.85;;;15.70;99.90;;;;;;5088492;28;20226;-82
2022/06/04 07:48:14;;;;;;;4.00;2.75;;;15.70;99.90;;;;;;5090257;28;20219;-81
2022/06/04 07:50:48;;;;;;;2.90;2.30;;;15.60;99.90;;;;;;5092568;28;20285;-82
2022/06/04 07:53:19;;;;;;;2.03;1.80;;;15.60;99.90;;;;;;5090981;28;20574;-83
2022/06/04 07:55:49;;;;;;;3.60;2.10;;;15.50;99.90;;;;;;5094148;28;21929;-83
2022/06/04 07:58:20;;;;;;;4.07;1.55;;;15.50;99.90;;;;;;5092150;28;20198;-83
2022/06/04 08:00:57;;;;;;;1.50;1.40;;;15.40;99.90;;;;;;5089643;28;20207;-82
2022/06/04 08:03:28;;;;;;;2.65;1.50;;;15.40;99.90;;;;;;5089372;28;20202;-84
2022/06/04 08:06:01;;;;;;;1.38;1.20;;;15.40;99.90;;;;;;5086315;28;20823;-82
2022/06/04 08:08:32;;;;;;;2.15;1.30;;;15.30;99.90;;;;;;5089663;28;20283;-82
2022/06/04 08:11:30;;;;;;;2.97;1.90;;;15.40;99.90;;;;;;5096149;28;20201;-82
2022/06/04 08:13:57;;;;;;;2.35;1.80;;;15.30;99.90;;;;;;5087633;28;20812;-81
2022/06/04 08:16:28;;;;;;;2.30;1.80;;;15.30;99.90;;;;;;5088159;28;20195;-83
2022/06/04 08:18:58;;;;;;;1.70;1.52;;;15.20;99.90;;;;;;5090004;28;20199;-82
2022/06/04 08:21:31;;;;;;;4.15;2.13;;;15.20;99.90;;;;;;5090427;28;20881;-81
2022/06/04 08:24:02;;;;;;;1.98;1.77;;;15.10;99.90;;;;;;5089833;28;20198;-82
2022/06/04 08:26:32;;;;;;;1.95;1.75;;;15.10;99.90;;;;;;5089758;28;20215;-81
2022/06/04 08:29:03;;;;;;;1.83;1.58;;;15.10;99.90;;;;;;5092685;28;20195;-84
2022/06/04 08:31:34;;;;;;;1.90;1.70;;;15.10;99.90;;;;;;5112711;28;20195;-85
2022/06/04 08:34:05;;;;;;;2.58;2.10;;;15.00;99.90;;;;;;5111561;28;20273;-84
2022/06/04 08:36:38;;;;;;;3.95;3.40;;;15.00;99.90;;;;;;5095273;28;20292;-84
2022/06/04 08:39:08;;;;;;;3.08;1.60;;;15.00;99.90;;;;;;5091796;28;20219;-82
2022/06/04 08:41:59;;;;;;;2.92;2.20;;;15.00;99.90;;;;;;5091810;28;20195;-82
2022/06/04 08:44:33;;;;;;;2.80;2.55;;;14.90;99.90;;;;;;5090802;28;20230;-85
2022/06/04 08:47:13;;;;;;;3.08;2.72;;;14.90;99.90;;;;;;5092078;28;20253;-82
2022/06/04 08:49:48;;;;;;;2.80;2.30;;;14.90;99.90;;;;;;5090858;28;20214;-84
2022/06/04 08:52:31;;;;;;;5.13;3.10;;;14.90;99.90;;;;;;5095641;28;20875;-84
2022/06/04 08:58:15;;;;;;;4.60;3.78;;;14.90;99.90;;;;;;5095035;28;21301;-83
2022/06/04 09:00:52;;;;;;;4.90;3.67;;;14.80;99.90;;;;;;5090827;28;20204;-84
2022/06/04 09:03:27;;;;;;;3.75;3.35;;;14.80;99.90;;;;;;5092162;28;20255;-82
2022/06/04 09:06:24;;;;;;;4.80;2.95;;;14.80;99.90;;;;;;5089404;28;20370;-84
2022/06/04 09:09:01;;;;;;;4.15;3.65;;;14.80;99.90;;;;;;5088616;28;20222;-84
2022/06/04 09:11:40;;;;;;;3.10;2.40;;;14.70;99.90;;;;;;5090227;28;20222;-83
2022/06/04 09:14:33;;;;;;;3.50;2.40;;;14.70;99.90;;;;;;5088743;28;20728;-83
2022/06/04 09:17:05;;;;;;;4.40;3.20;;;14.60;99.90;;;;;;5092173;28;20260;-84
2022/06/04 09:19:38;;;;;;;6.70;4.05;;;14.60;99.90;;;;;;5090725;28;20194;-84
2022/06/04 09:22:20;;;;;;;6.85;4.88;;;14.60;99.90;;;;;;5091457;28;20203;-82
2022/06/04 09:24:53;;;;;;;4.93;4.13;;;14.60;99.90;;;;;;5090569;28;20183;-83
2022/06/04 09:27:35;;;;;;;3.65;3.10;;;14.60;99.90;;;;;;5089557;28;20210;-83
2022/06/04 09:30:15;;;;;;;7.88;7.07;;;14.60;99.90;;;;;;5090457;28;20296;-84
2022/06/04 09:33:17;;;;;;;6.57;5.82;;;14.70;99.90;;;;;;5091765;28;20218;-83
2022/06/04 09:35:47;;;;;;;7.35;6.57;;;14.60;99.90;;;;;;5088474;28;21324;-83
2022/06/04 09:38:29;;;;;;;3.22;2.58;;;14.70;99.90;;;;;;5092387;28;20196;-82
2022/06/04 09:41:06;;;;;;;2.70;2.50;;;14.60;99.90;;;;;;5090453;28;20604;-83
2022/06/04 09:43:37;;;;;;;6.57;5.95;;;14.60;99.90;;;;;;5090209;28;20264;-83
2022/06/04 09:46:09;;;;;;;5.43;4.25;;;14.60;99.90;;;;;;5089109;28;20720;-81
2022/06/04 09:48:44;;;;;;;4.80;3.00;;;14.60;99.90;;;;;;5089609;28;20195;-84
2022/06/04 09:51:21;;;;;;;3.55;2.35;;;14.60;99.90;;;;;;5090720;28;20209;-84
2022/06/04 09:53:53;;;;;;;2.50;1.92;;;14.50;99.90;;;;;;5089174;28;20225;-84
2022/06/04 09:56:37;;;;;;;2.92;1.73;;;14.60;99.90;;;;;;5089068;28;20203;-83
2022/06/04 09:59:19;;;;;;;3.55;3.00;;;14.50;99.90;;;;;;5091647;28;20187;-84
2022/06/04 10:02:01;;;;;;;2.85;2.25;;;14.50;99.90;;;;;;5094368;28;20306;-86
2022/06/04 10:04:43;;;;;;;2.50;2.30;;;14.50;99.90;;;;;;5093796;28;20183;-83
2022/06/04 10:07:16;;;;;;;2.15;1.90;;;14.50;99.90;;;;;;5097119;28;20320;-81
2022/06/04 10:09:57;;;;;;;2.35;1.77;;;14.40;99.90;;;;;;5088860;28;20211;-81
2022/06/04 10:15:28;;;;;;;2.60;2.40;;;14.40;99.90;;;;;;5088767;28;21065;-83
2022/06/04 10:18:06;;;;;;;2.78;2.58;;;14.40;99.90;;;;;;5089752;28;20547;-86
2022/06/04 10:20:37;;;;;;;3.38;2.42;;;14.40;99.90;;;;;;5085833;28;20198;-81
2022/06/04 10:23:14;;;;;;;2.70;2.22;;;14.40;99.90;;;;;;5089266;28;20221;-84
2022/06/04 10:25:56;;;;;;;2.47;1.83;;;14.30;99.90;;;;;;5088325;28;20190;-83
2022/06/04 10:28:41;;;;;;;1.95;1.70;;;14.30;99.90;;;;;;5089263;28;20202;-82
2022/06/04 10:31:21;;;;;;;2.20;1.85;;;14.30;99.90;;;;;;5088727;28;20198;-81
2022/06/04 10:33:59;;;;;;;2.20;1.95;;;14.20;99.90;;;;;;5088505;28;20560;-84
2022/06/04 10:36:48;;;;;;;2.22;1.60;;;14.20;99.90;;;;;;5089108;28;20238;-82
2022/06/04 10:39:36;;;;;;;2.35;1.70;;;14.20;99.90;;;;;;5087082;28;20264;-83
2022/06/04 10:42:14;;;;;;;3.15;1.90;;;14.20;99.90;;;;;;5088533;28;20218;-82
2022/06/04 10:45:09;;;;;;;2.65;1.90;;;14.20;99.90;;;;;;5087996;28;20191;-83
2022/06/04 10:47:48;;;;;;;3.25;1.58;;;14.20;99.90;;;;;;5086926;28;20330;-81
2022/06/04 10:51:25;;;;;;;2.88;2.03;;;14.20;99.90;;;;;;5085717;28;20199;-83
2022/06/04 10:53:46;;;;;;;2.30;1.98;;;14.20;99.90;;;;;;5089318;28;20485;-83
2022/06/04 10:56:22;;;;;;;2.88;2.03;;;14.20;99.90;;;;;;5086470;28;20226;-83
2022/06/04 10:59:02;;;;;;;2.92;2.10;;;14.20;99.90;;;;;;5086531;28;20525;-82
2022/06/04 11:01:46;;;;;;;3.03;2.22;;;14.20;99.90;;;;;;5087544;28;20615;-81
2022/06/04 11:04:35;;;;;;;3.05;2.47;;;14.10;99.90;;;;;;5089842;28;20195;-86
2022/06/04 11:07:21;;;;;;;2.08;1.88;;;14.20;99.90;;;;;;5000303;28;2493591;-83
2022/06/04 11:09:53;;;;;;;2.50;2.10;;;14.20;99.90;;;;;;5089143;28;20264;-80
2022/06/04 11:12:33;;;;;;;2.10;1.90;;;14.20;99.90;;;;;;5089506;28;20187;-81
2022/06/04 11:15:06;;;;;;;3.03;1.67;;;14.20;99.90;;;;;;5088141;28;20207;-86
2022/06/04 11:17:48;;;;;;;2.17;1.50;;;14.10;99.90;;;;;;5089737;28;20245;-82
2022/06/04 11:20:22;;;;;;;1.48;1.38;;;14.10;99.90;;;;;;5087021;28;20216;-82
2022/06/04 11:23:03;;;;;;;1.95;1.50;;;14.10;99.90;;;;;;5087077;28;20210;-82
2022/06/04 11:25:38;;;;;;;1.40;1.23;;;14.20;99.90;;;;;;5087809;28;20323;-82
2022/06/04 11:28:12;;;;;;;2.92;1.45;;;14.10;99.90;;;;;;5088444;28;20281;-85
2022/06/04 11:30:50;;;;;;;1.42;1.20;;;14.20;99.90;;;;;;5087822;28;20214;-81
2022/06/04 11:33:33;;;;;;;1.90;1.30;;;14.20;99.90;;;;;;5090133;28;20218;-84
2022/06/04 11:36:14;;;;;;;1.30;1.20;;;14.10;99.90;;;;;;5096680;28;20526;-85
2022/06/04 11:38:59;;;;;;;2.30;1.60;;;14.10;99.90;;;;;;5096917;28;20222;-85
2022/06/04 11:41:38;;;;;;;2.50;1.40;;;14.20;99.90;;;;;;5096267;28;20211;-85
2022/06/04 11:44:35;;;;;;;2.28;1.35;;;14.20;99.90;;;;;;5099022;28;20194;-82
2022/06/04 11:47:16;;;;;;;1.73;1.50;;;14.10;99.90;;;;;;5114571;28;20298;-84
2022/06/04 11:49:56;;;;;;;1.75;1.30;;;14.10;99.90;;;;;;5110885;28;20203;-81
2022/06/04 11:52:29;;;;;;;2.13;1.45;;;14.10;99.90;;;;;;5095304;28;20203;-82
2022/06/04 11:55:24;;;;;;;1.80;1.30;;;14.10;99.90;;;;;;5090700;28;20209;-81
2022/06/04 11:58:16;;;;;;;1.58;1.38;;;14.00;99.90;;;;;;5094466;28;20206;-81
2022/06/04 12:00:49;;;;;;;1.90;1.40;;;14.00;99.90;;;;;;5093462;28;20798;-85
2022/06/04 12:03:26;;;;;;;1.58;1.17;;;14.00;99.90;;;;;;5095927;28;20195;-83
2022/06/04 12:06:04;;;;;;;4.07;1.40;;;14.00;99.90;;;;;;5092880;28;20198;-84
2022/06/04 12:08:41;;;;;;;2.28;1.30;;;14.00;99.90;;;;;;5092130;28;20231;-81
2022/06/04 12:11:26;;;;;;;1.77;1.27;;;13.90;99.90;;;;;;5091337;28;20255;-82
2022/06/04 12:14:05;;;;;;;1.10;1.00;;;13.90;99.90;;;;;;5093166;28;20203;-82
2022/06/04 12:16:42;;;;;;;2.70;1.10;;;13.90;99.90;;;;;;5094026;28;20198;-82
2022/06/04 12:25:41;;;;;;;1.45;1.10;;;13.90;99.90;;;;;;5028603;28;20213;-81
2022/06/04 12:28:29;;;;;;;1.02;0.90;;;13.90;99.90;;;;;;5029294;28;20714;-84
2022/06/04 12:31:01;;;;;;;1.33;1.20;;;13.90;99.90;;;;;;5027340;28;20627;-83
2022/06/04 12:33:34;;;;;;;2.60;1.23;;;13.80;99.90;;;;;;5053528;28;20231;-80
2022/06/04 12:36:07;;;;;;;2.03;1.10;;;13.80;99.90;;;;;;5091593;28;20195;-88
2022/06/04 12:38:42;;;;;;;3.53;1.48;;;13.70;99.90;;;;;;5095704;28;20256;-88
2022/06/04 12:41:17;;;;;;;1.67;1.20;;;13.80;99.90;;;;;;5094310;28;20214;-86
2022/06/04 12:43:50;;;;;;;1.30;0.90;;;13.80;99.90;;;;;;5090594;28;20205;-81
2022/06/04 12:46:36;;;;;;;1.20;1.00;;;13.70;99.90;;;;;;5090837;28;20213;-85
2022/06/04 12:49:20;;;;;;;1.08;0.88;;;13.70;99.90;;;;;;5094598;28;20267;-85
2022/06/04 12:51:56;;;;;;;1.40;1.10;;;13.60;99.90;;;;;;5099872;28;20202;-83
2022/06/04 12:54:56;;;;;;;1.27;0.90;;;13.60;99.90;;;;;;5091800;28;20199;-88
2022/06/04 12:57:47;;;;;;;1.88;1.10;;;13.60;99.90;;;;;;5090202;28;20325;-87
2022/06/04 13:00:35;;;;;;;1.17;0.93;;;13.70;99.90;;;;;;5089573;27;20317;-84
2022/06/04 13:03:33;;;;;;;1.00;0.77;;;13.60;99.90;;;;;;5094238;28;21230;-84
2022/06/04 13:06:35;;;;;;;1.33;0.90;;;13.60;99.90;;;;;;5091265;28;20239;-81
2022/06/04 13:09:17;;;;;;;1.38;1.00;;;13.70;99.90;;;;;;5091675;28;20240;-82
2022/06/04 13:12:06;;;;;;;1.17;0.90;;;13.70;99.90;;;;;;5091885;28;20215;-84
2022/06/04 13:14:46;;;;;;;0.80;0.80;;;13.70;99.90;;;;;;5091344;28;20199;-83
2022/06/04 13:17:32;;;;;;;1.98;1.00;;;13.70;99.90;;;;;;5090295;28;20198;-82
2022/06/04 13:20:31;;;;;;;0.95;0.77;;;13.80;99.90;;;;;;5091707;28;20191;-83
2022/06/04 13:23:06;;;;;;;2.55;1.00;;;13.80;99.90;;;;;;5093194;28;20207;-83
2022/06/04 13:25:41;;;;;;;1.35;0.95;;;13.70;99.90;;;;;;5092879;28;20207;-82
2022/06/04 13:28:27;;;;;;;1.20;0.80;;;13.70;99.90;;;;;;5094627;28;20218;-82
2022/06/04 13:31:00;;;;;;;0.88;0.70;;;13.70;99.90;;;;;;5090359;28;20678;-85
2022/06/04 13:33:31;;;;;;;1.50;0.80;;;13.70;99.90;;;;;;5088788;28;20206;-83
2022/06/04 13:36:03;;;;;;;1.10;0.95;;;13.80;99.90;;;;;;5087707;28;20198;-82
2022/06/04 13:38:39;;;;;;;4.32;1.00;;;13.70;99.90;;;;;;5090038;28;20304;-81
2022/06/04 13:41:17;;;;;;;1.45;0.93;;;13.60;99.90;;;;;;5092678;28;20306;-84
2022/06/04 13:43:52;;;;;;;1.23;0.93;;;13.60;99.90;;;;;;5091356;28;20665;-87
2022/06/04 13:46:27;;;;;;;1.27;0.80;;;13.60;99.90;;;;;;5092487;28;20205;-85
2022/06/04 13:49:05;;;;;;;1.00;0.90;;;13.60;99.90;;;;;;5091599;28;20227;-87